<?xml version="1.0" encoding="UTF-8" standalone="no" ?>
<gpx xmlns="http://www.topografix.com/GPX/1/1" xmlns:xsi="http://www.w3.org/2001/XMLSchema-instance" xsi:schemaLocation="http://www.topografix.com/GPX/1/1 http://www.topografix.com/GPX/1/1/gpx.xsd" version="1.1" creator="VisuGPX - https://www.visugpx.com">
  <metadata>
    <name>luzech 6 descentes</name>
    <desc><![CDATA[parcours typé enduro avec de belles descentes]]></desc>
  </metadata>
  <trk>
    <name><![CDATA[2014-04-01-08-18-57]]></name>
    <trkseg>
      <trkpt lat="44.44083" lon="1.30892">
        <ele>164.023</ele>
        <time>2014-04-01T11:55:47Z</time>
      </trkpt>
      <trkpt lat="44.44093" lon="1.30887">
        <ele>165.314</ele>
        <time>2014-04-01T11:55:52Z</time>
      </trkpt>
      <trkpt lat="44.44108" lon="1.30881">
        <ele>164.164</ele>
        <time>2014-04-01T11:55:58Z</time>
      </trkpt>
      <trkpt lat="44.44126" lon="1.30877">
        <ele>163.644</ele>
        <time>2014-04-01T11:56:04Z</time>
      </trkpt>
      <trkpt lat="44.44149" lon="1.30871">
        <ele>166.235</ele>
        <time>2014-04-01T11:56:12Z</time>
      </trkpt>
      <trkpt lat="44.44173" lon="1.30865">
        <ele>165.014</ele>
        <time>2014-04-01T11:56:19Z</time>
      </trkpt>
      <trkpt lat="44.44203" lon="1.30864">
        <ele>161.872</ele>
        <time>2014-04-01T11:56:25Z</time>
      </trkpt>
      <trkpt lat="44.44244" lon="1.30866">
        <ele>157.451</ele>
        <time>2014-04-01T11:56:32Z</time>
      </trkpt>
      <trkpt lat="44.44273" lon="1.30869">
        <ele>153.801</ele>
        <time>2014-04-01T11:56:36Z</time>
      </trkpt>
      <trkpt lat="44.44295" lon="1.30877">
        <ele>151.121</ele>
        <time>2014-04-01T11:56:39Z</time>
      </trkpt>
      <trkpt lat="44.44343" lon="1.3088">
        <ele>146.811</ele>
        <time>2014-04-01T11:56:45Z</time>
      </trkpt>
      <trkpt lat="44.44402" lon="1.30872">
        <ele>143.102</ele>
        <time>2014-04-01T11:56:53Z</time>
      </trkpt>
      <trkpt lat="44.44408" lon="1.30871">
        <ele>143.293</ele>
        <time>2014-04-01T11:56:54Z</time>
      </trkpt>
      <trkpt lat="44.44426" lon="1.30867">
        <ele>144.245</ele>
        <time>2014-04-01T11:56:59Z</time>
      </trkpt>
      <trkpt lat="44.4444" lon="1.30857">
        <ele>146.666</ele>
        <time>2014-04-01T11:57:05Z</time>
      </trkpt>
      <trkpt lat="44.44446" lon="1.30865">
        <ele>147.656</ele>
        <time>2014-04-01T11:57:10Z</time>
      </trkpt>
      <trkpt lat="44.44441" lon="1.30887">
        <ele>149.037</ele>
        <time>2014-04-01T11:57:17Z</time>
      </trkpt>
      <trkpt lat="44.44437" lon="1.3091">
        <ele>149.706</ele>
        <time>2014-04-01T11:57:24Z</time>
      </trkpt>
      <trkpt lat="44.44435" lon="1.30935">
        <ele>150.916</ele>
        <time>2014-04-01T11:57:32Z</time>
      </trkpt>
      <trkpt lat="44.44436" lon="1.30958">
        <ele>152.066</ele>
        <time>2014-04-01T11:57:40Z</time>
      </trkpt>
      <trkpt lat="44.44435" lon="1.30984">
        <ele>153.346</ele>
        <time>2014-04-01T11:57:49Z</time>
      </trkpt>
      <trkpt lat="44.44435" lon="1.31011">
        <ele>155.316</ele>
        <time>2014-04-01T11:57:59Z</time>
      </trkpt>
      <trkpt lat="44.44435" lon="1.31032">
        <ele>155.776</ele>
        <time>2014-04-01T11:58:07Z</time>
      </trkpt>
      <trkpt lat="44.44433" lon="1.31053">
        <ele>158.437</ele>
        <time>2014-04-01T11:58:15Z</time>
      </trkpt>
      <trkpt lat="44.44432" lon="1.31071">
        <ele>161.228</ele>
        <time>2014-04-01T11:58:22Z</time>
      </trkpt>
      <trkpt lat="44.44434" lon="1.31088">
        <ele>165.208</ele>
        <time>2014-04-01T11:58:28Z</time>
      </trkpt>
      <trkpt lat="44.44434" lon="1.31099">
        <ele>167.328</ele>
        <time>2014-04-01T11:58:33Z</time>
      </trkpt>
      <trkpt lat="44.4443" lon="1.31108">
        <ele>167.987</ele>
        <time>2014-04-01T11:58:37Z</time>
      </trkpt>
      <trkpt lat="44.44423" lon="1.3113">
        <ele>167.627</ele>
        <time>2014-04-01T11:58:46Z</time>
      </trkpt>
      <trkpt lat="44.44419" lon="1.31145">
        <ele>167.027</ele>
        <time>2014-04-01T11:58:52Z</time>
      </trkpt>
      <trkpt lat="44.44416" lon="1.31159">
        <ele>169.927</ele>
        <time>2014-04-01T11:58:58Z</time>
      </trkpt>
      <trkpt lat="44.44413" lon="1.31171">
        <ele>170.917</ele>
        <time>2014-04-01T11:59:03Z</time>
      </trkpt>
      <trkpt lat="44.4441" lon="1.31188">
        <ele>169.146</ele>
        <time>2014-04-01T11:59:10Z</time>
      </trkpt>
      <trkpt lat="44.44404" lon="1.31203">
        <ele>166.566</ele>
        <time>2014-04-01T11:59:16Z</time>
      </trkpt>
      <trkpt lat="44.44399" lon="1.31219">
        <ele>166.236</ele>
        <time>2014-04-01T11:59:22Z</time>
      </trkpt>
      <trkpt lat="44.44392" lon="1.31241">
        <ele>168.39</ele>
        <time>2014-04-01T11:59:31Z</time>
      </trkpt>
      <trkpt lat="44.44388" lon="1.31259">
        <ele>172.728</ele>
        <time>2014-04-01T11:59:39Z</time>
      </trkpt>
      <trkpt lat="44.44382" lon="1.31277">
        <ele>173.627</ele>
        <time>2014-04-01T11:59:46Z</time>
      </trkpt>
      <trkpt lat="44.4438" lon="1.31289">
        <ele>172.516</ele>
        <time>2014-04-01T11:59:51Z</time>
      </trkpt>
      <trkpt lat="44.44375" lon="1.3131">
        <ele>172.146</ele>
        <time>2014-04-01T11:59:59Z</time>
      </trkpt>
      <trkpt lat="44.44373" lon="1.31328">
        <ele>172.396</ele>
        <time>2014-04-01T12:00:06Z</time>
      </trkpt>
      <trkpt lat="44.44371" lon="1.3135">
        <ele>175.237</ele>
        <time>2014-04-01T12:00:15Z</time>
      </trkpt>
      <trkpt lat="44.44372" lon="1.31375">
        <ele>177.537</ele>
        <time>2014-04-01T12:00:25Z</time>
      </trkpt>
      <trkpt lat="44.44376" lon="1.31397">
        <ele>176.737</ele>
        <time>2014-04-01T12:00:34Z</time>
      </trkpt>
      <trkpt lat="44.44374" lon="1.31414">
        <ele>176.736</ele>
        <time>2014-04-01T12:00:40Z</time>
      </trkpt>
      <trkpt lat="44.44369" lon="1.31429">
        <ele>176.766</ele>
        <time>2014-04-01T12:00:46Z</time>
      </trkpt>
      <trkpt lat="44.44361" lon="1.3144">
        <ele>176.326</ele>
        <time>2014-04-01T12:00:51Z</time>
      </trkpt>
      <trkpt lat="44.44353" lon="1.31461">
        <ele>177.306</ele>
        <time>2014-04-01T12:01:00Z</time>
      </trkpt>
      <trkpt lat="44.44345" lon="1.31481">
        <ele>178.697</ele>
        <time>2014-04-01T12:01:09Z</time>
      </trkpt>
      <trkpt lat="44.44335" lon="1.315">
        <ele>180.497</ele>
        <time>2014-04-01T12:01:18Z</time>
      </trkpt>
      <trkpt lat="44.44328" lon="1.31511">
        <ele>183.117</ele>
        <time>2014-04-01T12:01:24Z</time>
      </trkpt>
      <trkpt lat="44.44323" lon="1.31516">
        <ele>184.267</ele>
        <time>2014-04-01T12:01:28Z</time>
      </trkpt>
      <trkpt lat="44.44312" lon="1.31525">
        <ele>183.056</ele>
        <time>2014-04-01T12:01:35Z</time>
      </trkpt>
      <trkpt lat="44.443" lon="1.31531">
        <ele>181.855</ele>
        <time>2014-04-01T12:01:42Z</time>
      </trkpt>
      <trkpt lat="44.44291" lon="1.31534">
        <ele>182.916</ele>
        <time>2014-04-01T12:01:49Z</time>
      </trkpt>
      <trkpt lat="44.44283" lon="1.31535">
        <ele>184.246</ele>
        <time>2014-04-01T12:01:56Z</time>
      </trkpt>
      <trkpt lat="44.44275" lon="1.31536">
        <ele>184.456</ele>
        <time>2014-04-01T12:02:02Z</time>
      </trkpt>
      <trkpt lat="44.44263" lon="1.31538">
        <ele>185.456</ele>
        <time>2014-04-01T12:02:09Z</time>
      </trkpt>
      <trkpt lat="44.44248" lon="1.3154">
        <ele>185.057</ele>
        <time>2014-04-01T12:02:17Z</time>
      </trkpt>
      <trkpt lat="44.44232" lon="1.31544">
        <ele>183.816</ele>
        <time>2014-04-01T12:02:26Z</time>
      </trkpt>
      <trkpt lat="44.44215" lon="1.31551">
        <ele>183.056</ele>
        <time>2014-04-01T12:02:36Z</time>
      </trkpt>
      <trkpt lat="44.442" lon="1.31565">
        <ele>186.967</ele>
        <time>2014-04-01T12:02:47Z</time>
      </trkpt>
      <trkpt lat="44.4419" lon="1.31578">
        <ele>188.976</ele>
        <time>2014-04-01T12:02:55Z</time>
      </trkpt>
      <trkpt lat="44.44179" lon="1.31592">
        <ele>192.166</ele>
        <time>2014-04-01T12:03:04Z</time>
      </trkpt>
      <trkpt lat="44.44167" lon="1.31606">
        <ele>194.046</ele>
        <time>2014-04-01T12:03:13Z</time>
      </trkpt>
      <trkpt lat="44.44156" lon="1.31622">
        <ele>195.526</ele>
        <time>2014-04-01T12:03:21Z</time>
      </trkpt>
      <trkpt lat="44.44147" lon="1.3164">
        <ele>196.126</ele>
        <time>2014-04-01T12:03:30Z</time>
      </trkpt>
      <trkpt lat="44.44142" lon="1.31656">
        <ele>197.077</ele>
        <time>2014-04-01T12:03:38Z</time>
      </trkpt>
      <trkpt lat="44.44137" lon="1.31674">
        <ele>199.506</ele>
        <time>2014-04-01T12:03:47Z</time>
      </trkpt>
      <trkpt lat="44.4413" lon="1.3169">
        <ele>200.312</ele>
        <time>2014-04-01T12:03:55Z</time>
      </trkpt>
      <trkpt lat="44.44121" lon="1.31704">
        <ele>201.086</ele>
        <time>2014-04-01T12:04:03Z</time>
      </trkpt>
      <trkpt lat="44.44112" lon="1.31718">
        <ele>201.816</ele>
        <time>2014-04-01T12:04:11Z</time>
      </trkpt>
      <trkpt lat="44.44102" lon="1.31735">
        <ele>201.906</ele>
        <time>2014-04-01T12:04:20Z</time>
      </trkpt>
      <trkpt lat="44.44093" lon="1.31752">
        <ele>205.637</ele>
        <time>2014-04-01T12:04:29Z</time>
      </trkpt>
      <trkpt lat="44.44085" lon="1.31768">
        <ele>208.706</ele>
        <time>2014-04-01T12:04:37Z</time>
      </trkpt>
      <trkpt lat="44.44074" lon="1.31786">
        <ele>208.706</ele>
        <time>2014-04-01T12:04:47Z</time>
      </trkpt>
      <trkpt lat="44.44065" lon="1.31798">
        <ele>209.636</ele>
        <time>2014-04-01T12:04:55Z</time>
      </trkpt>
      <trkpt lat="44.44053" lon="1.31813">
        <ele>211.706</ele>
        <time>2014-04-01T12:05:05Z</time>
      </trkpt>
      <trkpt lat="44.44042" lon="1.31825">
        <ele>213.596</ele>
        <time>2014-04-01T12:05:13Z</time>
      </trkpt>
      <trkpt lat="44.44032" lon="1.31838">
        <ele>213.805</ele>
        <time>2014-04-01T12:05:22Z</time>
      </trkpt>
      <trkpt lat="44.4402" lon="1.31853">
        <ele>213.615</ele>
        <time>2014-04-01T12:05:32Z</time>
      </trkpt>
      <trkpt lat="44.4401" lon="1.31864">
        <ele>213.435</ele>
        <time>2014-04-01T12:05:40Z</time>
      </trkpt>
      <trkpt lat="44.44001" lon="1.31876">
        <ele>214.265</ele>
        <time>2014-04-01T12:05:48Z</time>
      </trkpt>
      <trkpt lat="44.43991" lon="1.31888">
        <ele>215.616</ele>
        <time>2014-04-01T12:05:56Z</time>
      </trkpt>
      <trkpt lat="44.43984" lon="1.31904">
        <ele>218.116</ele>
        <time>2014-04-01T12:06:05Z</time>
      </trkpt>
      <trkpt lat="44.4398" lon="1.31921">
        <ele>217.456</ele>
        <time>2014-04-01T12:06:13Z</time>
      </trkpt>
      <trkpt lat="44.43975" lon="1.31943">
        <ele>218.426</ele>
        <time>2014-04-01T12:06:23Z</time>
      </trkpt>
      <trkpt lat="44.43971" lon="1.31962">
        <ele>220.623</ele>
        <time>2014-04-01T12:06:32Z</time>
      </trkpt>
      <trkpt lat="44.43967" lon="1.31985">
        <ele>222.966</ele>
        <time>2014-04-01T12:06:43Z</time>
      </trkpt>
      <trkpt lat="44.43966" lon="1.32006">
        <ele>224.676</ele>
        <time>2014-04-01T12:06:53Z</time>
      </trkpt>
      <trkpt lat="44.43965" lon="1.32022">
        <ele>226.096</ele>
        <time>2014-04-01T12:07:01Z</time>
      </trkpt>
      <trkpt lat="44.43963" lon="1.3204">
        <ele>228.517</ele>
        <time>2014-04-01T12:07:10Z</time>
      </trkpt>
      <trkpt lat="44.43964" lon="1.32054">
        <ele>231.417</ele>
        <time>2014-04-01T12:07:17Z</time>
      </trkpt>
      <trkpt lat="44.43964" lon="1.32072">
        <ele>233.436</ele>
        <time>2014-04-01T12:07:26Z</time>
      </trkpt>
      <trkpt lat="44.43965" lon="1.32089">
        <ele>235.696</ele>
        <time>2014-04-01T12:07:35Z</time>
      </trkpt>
      <trkpt lat="44.43965" lon="1.32103">
        <ele>237.587</ele>
        <time>2014-04-01T12:07:42Z</time>
      </trkpt>
      <trkpt lat="44.43965" lon="1.32121">
        <ele>239.687</ele>
        <time>2014-04-01T12:07:51Z</time>
      </trkpt>
      <trkpt lat="44.43963" lon="1.32136">
        <ele>240.796</ele>
        <time>2014-04-01T12:07:58Z</time>
      </trkpt>
      <trkpt lat="44.43962" lon="1.32151">
        <ele>239.546</ele>
        <time>2014-04-01T12:08:06Z</time>
      </trkpt>
      <trkpt lat="44.43957" lon="1.32169">
        <ele>241.506</ele>
        <time>2014-04-01T12:08:16Z</time>
      </trkpt>
      <trkpt lat="44.43957" lon="1.32181">
        <ele>241.976</ele>
        <time>2014-04-01T12:08:23Z</time>
      </trkpt>
      <trkpt lat="44.43954" lon="1.32195">
        <ele>244.366</ele>
        <time>2014-04-01T12:08:30Z</time>
      </trkpt>
      <trkpt lat="44.4395" lon="1.32211">
        <ele>248.547</ele>
        <time>2014-04-01T12:08:39Z</time>
      </trkpt>
      <trkpt lat="44.43946" lon="1.32223">
        <ele>251.567</ele>
        <time>2014-04-01T12:08:46Z</time>
      </trkpt>
      <trkpt lat="44.43944" lon="1.32236">
        <ele>253.406</ele>
        <time>2014-04-01T12:08:53Z</time>
      </trkpt>
      <trkpt lat="44.43941" lon="1.32249">
        <ele>253.906</ele>
        <time>2014-04-01T12:09:01Z</time>
      </trkpt>
      <trkpt lat="44.4394" lon="1.32254">
        <ele>255.186</ele>
        <time>2014-04-01T12:09:04Z</time>
      </trkpt>
      <trkpt lat="44.43944" lon="1.32265">
        <ele>255.536</ele>
        <time>2014-04-01T12:09:11Z</time>
      </trkpt>
      <trkpt lat="44.43948" lon="1.32266">
        <ele>257.917</ele>
        <time>2014-04-01T12:09:16Z</time>
      </trkpt>
      <trkpt lat="44.43954" lon="1.3226">
        <ele>254.766</ele>
        <time>2014-04-01T12:09:23Z</time>
      </trkpt>
      <trkpt lat="44.43964" lon="1.32245">
        <ele>254.946</ele>
        <time>2014-04-01T12:09:33Z</time>
      </trkpt>
      <trkpt lat="44.43971" lon="1.32231">
        <ele>254.396</ele>
        <time>2014-04-01T12:09:41Z</time>
      </trkpt>
      <trkpt lat="44.43979" lon="1.32212">
        <ele>254.236</ele>
        <time>2014-04-01T12:09:51Z</time>
      </trkpt>
      <trkpt lat="44.43987" lon="1.32192">
        <ele>254.396</ele>
        <time>2014-04-01T12:10:02Z</time>
      </trkpt>
      <trkpt lat="44.43995" lon="1.32174">
        <ele>255.326</ele>
        <time>2014-04-01T12:10:12Z</time>
      </trkpt>
      <trkpt lat="44.44" lon="1.3216">
        <ele>256.256</ele>
        <time>2014-04-01T12:10:20Z</time>
      </trkpt>
      <trkpt lat="44.44006" lon="1.32143">
        <ele>257.556</ele>
        <time>2014-04-01T12:10:30Z</time>
      </trkpt>
      <trkpt lat="44.44009" lon="1.32134">
        <ele>258.236</ele>
        <time>2014-04-01T12:10:35Z</time>
      </trkpt>
      <trkpt lat="44.44011" lon="1.32126">
        <ele>259.157</ele>
        <time>2014-04-01T12:10:40Z</time>
      </trkpt>
      <trkpt lat="44.44015" lon="1.32113">
        <ele>260.437</ele>
        <time>2014-04-01T12:10:47Z</time>
      </trkpt>
      <trkpt lat="44.4402" lon="1.32098">
        <ele>261.777</ele>
        <time>2014-04-01T12:10:55Z</time>
      </trkpt>
      <trkpt lat="44.44024" lon="1.32081">
        <ele>263.197</ele>
        <time>2014-04-01T12:11:04Z</time>
      </trkpt>
      <trkpt lat="44.44028" lon="1.32064">
        <ele>264.606</ele>
        <time>2014-04-01T12:11:13Z</time>
      </trkpt>
      <trkpt lat="44.44032" lon="1.32048">
        <ele>265.757</ele>
        <time>2014-04-01T12:11:22Z</time>
      </trkpt>
      <trkpt lat="44.44039" lon="1.32028">
        <ele>267.546</ele>
        <time>2014-04-01T12:11:34Z</time>
      </trkpt>
      <trkpt lat="44.44047" lon="1.32014">
        <ele>268.967</ele>
        <time>2014-04-01T12:11:44Z</time>
      </trkpt>
      <trkpt lat="44.44058" lon="1.32001">
        <ele>271.366</ele>
        <time>2014-04-01T12:11:55Z</time>
      </trkpt>
      <trkpt lat="44.44067" lon="1.31992">
        <ele>272.796</ele>
        <time>2014-04-01T12:12:04Z</time>
      </trkpt>
      <trkpt lat="44.44077" lon="1.31983">
        <ele>274.546</ele>
        <time>2014-04-01T12:12:13Z</time>
      </trkpt>
      <trkpt lat="44.44087" lon="1.31975">
        <ele>276.626</ele>
        <time>2014-04-01T12:12:21Z</time>
      </trkpt>
      <trkpt lat="44.44098" lon="1.31968">
        <ele>278.837</ele>
        <time>2014-04-01T12:12:30Z</time>
      </trkpt>
      <trkpt lat="44.44106" lon="1.31963">
        <ele>280.016</ele>
        <time>2014-04-01T12:12:37Z</time>
      </trkpt>
      <trkpt lat="44.44125" lon="1.31955">
        <ele>282.796</ele>
        <time>2014-04-01T12:12:50Z</time>
      </trkpt>
      <trkpt lat="44.44135" lon="1.3195">
        <ele>284.227</ele>
        <time>2014-04-01T12:12:57Z</time>
      </trkpt>
      <trkpt lat="44.44152" lon="1.31943">
        <ele>285.386</ele>
        <time>2014-04-01T12:13:07Z</time>
      </trkpt>
      <trkpt lat="44.44171" lon="1.31938">
        <ele>286.547</ele>
        <time>2014-04-01T12:13:18Z</time>
      </trkpt>
      <trkpt lat="44.4419" lon="1.31935">
        <ele>288.037</ele>
        <time>2014-04-01T12:13:28Z</time>
      </trkpt>
      <trkpt lat="44.44207" lon="1.31938">
        <ele>289.607</ele>
        <time>2014-04-01T12:13:37Z</time>
      </trkpt>
      <trkpt lat="44.44231" lon="1.31943">
        <ele>291.266</ele>
        <time>2014-04-01T12:13:49Z</time>
      </trkpt>
      <trkpt lat="44.44244" lon="1.31946">
        <ele>291.126</ele>
        <time>2014-04-01T12:13:56Z</time>
      </trkpt>
      <trkpt lat="44.44244" lon="1.31946">
        <ele>291.12</ele>
        <time>2014-04-01T12:13:57Z</time>
      </trkpt>
    </trkseg>
  </trk>
</gpx>